createdAt,value
2023-04-09T00:01:23.044Z,5.95
2023-04-09T00:06:45.962Z,5.95
2023-04-09T00:12:08.223Z,5.99
2023-04-09T00:17:30.619Z,5.90
2023-04-09T00:22:52.934Z,5.81
2023-04-09T00:28:16.140Z,5.83
2023-04-09T00:33:38.413Z,5.80
2023-04-09T00:39:00.969Z,5.83
2023-04-09T00:44:23.353Z,5.75
2023-04-09T00:49:46.384Z,5.70
2023-04-09T00:55:11.719Z,5.51
2023-04-09T01:00:34.150Z,5.29
2023-04-09T01:06:16.573Z,5.23
2023-04-09T01:12:07.995Z,5.10
2023-04-09T01:17:35.172Z,5.00
2023-04-09T01:23:25.474Z,4.93
2023-04-09T01:28:54.967Z,4.85
2023-04-09T01:34:19.974Z,4.73
2023-04-09T01:39:43.701Z,4.68
2023-04-09T01:45:06.683Z,4.71
2023-04-09T01:50:29.473Z,4.67
2023-04-09T01:55:52.303Z,4.59
2023-04-09T02:01:19.537Z,4.49
2023-04-09T02:06:46.721Z,4.39
2023-04-09T02:12:23.487Z,4.39
2023-04-09T02:17:45.930Z,4.20
2023-04-09T02:23:08.576Z,4.14
2023-04-09T02:28:31.374Z,4.15
2023-04-09T02:33:54.568Z,4.02
2023-04-09T02:39:16.965Z,3.97
2023-04-09T02:44:39.268Z,3.92
2023-04-09T02:50:01.697Z,3.86
2023-04-09T02:55:24.791Z,3.89
2023-04-09T03:00:47.076Z,3.85
2023-04-09T03:06:10.115Z,3.84
2023-04-09T03:11:32.541Z,3.87
2023-04-09T03:16:54.840Z,3.84
2023-04-09T03:22:17.241Z,3.85
2023-04-09T03:27:39.508Z,3.82
2023-04-09T03:33:01.802Z,3.78
2023-04-09T03:38:24.087Z,3.88
2023-04-09T03:43:46.742Z,3.92
2023-04-09T03:49:09.106Z,3.91
2023-04-09T03:54:31.543Z,3.94
2023-04-09T03:59:53.788Z,3.89
2023-04-09T04:05:16.469Z,3.95
2023-04-09T04:10:40.208Z,4.07
2023-04-09T04:16:02.482Z,4.05
2023-04-09T04:21:28.064Z,4.07
2023-04-09T04:26:50.728Z,4.05
2023-04-09T04:32:12.991Z,4.10
2023-04-09T04:37:36.222Z,4.08
2023-04-09T04:42:58.547Z,4.15
2023-04-09T04:48:21.310Z,4.19
2023-04-09T04:53:43.790Z,4.23
2023-04-09T04:59:07.019Z,4.35
2023-04-09T05:04:29.334Z,4.42
2023-04-09T05:09:51.605Z,4.56
2023-04-09T05:15:14.410Z,4.59
2023-04-09T05:20:37.213Z,4.54
2023-04-09T05:26:02.269Z,4.56
2023-04-09T05:31:24.674Z,4.53
2023-04-09T05:36:46.974Z,4.57
2023-04-09T05:42:09.277Z,4.72
2023-04-09T05:47:31.818Z,4.83
2023-04-09T05:52:54.248Z,4.92
2023-04-09T05:58:22.339Z,4.93
2023-04-09T06:03:44.800Z,4.98
2023-04-09T06:09:07.394Z,5.07
2023-04-09T06:14:29.831Z,5.20
2023-04-09T06:19:52.699Z,5.07
2023-04-09T06:25:15.069Z,5.15
2023-04-09T06:30:37.884Z,5.31
2023-04-09T06:36:01.031Z,5.35
2023-04-09T06:41:23.305Z,5.51
2023-04-09T06:46:45.587Z,5.56
2023-04-09T06:52:08.200Z,5.65
2023-04-09T06:57:32.682Z,5.53
2023-04-09T07:02:57.589Z,5.66
2023-04-09T07:08:20.112Z,5.68
2023-04-09T07:13:42.363Z,5.79
2023-04-09T07:19:06.293Z,5.86
2023-04-09T07:24:28.623Z,5.84
2023-04-09T07:29:51.444Z,5.93
2023-04-09T07:35:15.971Z,6.25
2023-04-09T07:40:38.392Z,6.29
2023-04-09T07:46:03.331Z,6.36
2023-04-09T07:51:25.636Z,6.50
2023-04-09T07:56:47.893Z,6.31
2023-04-09T08:02:13.405Z,6.44
2023-04-09T08:07:35.188Z,6.75
2023-04-09T08:12:57.427Z,7.09
2023-04-09T08:18:19.751Z,7.23
2023-04-09T08:23:42.245Z,7.10
2023-04-09T08:29:04.638Z,6.98
2023-04-09T08:34:26.966Z,7.27
2023-04-09T08:39:49.341Z,7.29
2023-04-09T08:45:12.152Z,7.01
2023-04-09T08:50:37.280Z,7.05
2023-04-09T08:56:00.315Z,7.38
2023-04-09T09:01:33.963Z,7.56
2023-04-09T09:06:58.337Z,7.66
2023-04-09T09:12:22.357Z,7.87
2023-04-09T09:17:46.918Z,7.61
2023-04-09T09:23:10.257Z,7.90
2023-04-09T09:28:32.983Z,8.35
2023-04-09T09:33:55.576Z,8.45
2023-04-09T09:39:19.417Z,8.83
2023-04-09T09:44:51.810Z,8.98
2023-04-09T09:50:14.815Z,8.95
2023-04-09T09:55:39.364Z,9.26
2023-04-09T10:01:03.842Z,9.61
2023-04-09T10:06:27.981Z,9.68
2023-04-09T10:11:52.350Z,10.35
2023-04-09T10:17:15.351Z,10.72
2023-04-09T10:22:40.824Z,11.06
2023-04-09T10:28:14.668Z,11.13
2023-04-09T10:33:40.184Z,11.84
2023-04-09T10:39:05.477Z,12.25
2023-04-09T10:44:44.853Z,12.40
2023-04-09T10:50:24.405Z,12.60
2023-04-09T10:55:54.605Z,12.60
2023-04-09T11:01:12.280Z,12.64
2023-04-09T11:06:36.358Z,12.59
2023-04-09T11:12:01.420Z,12.55
2023-04-09T11:17:23.747Z,12.54
2023-04-09T11:22:47.646Z,12.48
2023-04-09T11:28:10.766Z,12.02
2023-04-09T11:33:37.987Z,12.54
2023-04-09T11:39:01.789Z,13.01
2023-04-09T11:44:24.695Z,13.41
2023-04-09T11:49:47.575Z,13.49
2023-04-09T11:55:13.255Z,13.58
2023-04-09T12:00:36.286Z,14.00
2023-04-09T12:06:00.152Z,14.51
2023-04-09T12:11:31.674Z,16.06
2023-04-09T12:16:56.339Z,15.65
2023-04-09T12:22:18.936Z,16.08
2023-04-09T12:27:41.209Z,16.33
2023-04-09T12:33:04.897Z,17.04
2023-04-09T12:38:27.749Z,17.22
2023-04-09T12:43:50.127Z,17.38
2023-04-09T12:49:12.975Z,17.40
2023-04-09T12:54:35.255Z,17.40
2023-04-09T12:59:57.529Z,17.35
2023-04-09T13:05:20.458Z,17.36
2023-04-09T13:10:43.862Z,17.04
2023-04-09T13:16:06.716Z,17.29
2023-04-09T13:21:29.792Z,17.29
2023-04-09T13:26:52.768Z,17.17
2023-04-09T13:32:15.944Z,17.18
2023-04-09T13:37:38.188Z,16.86
2023-04-09T13:43:01.679Z,17.24
2023-04-09T13:48:25.716Z,17.65
2023-04-09T13:53:48.598Z,17.99
2023-04-09T13:59:11.470Z,17.42
2023-04-09T14:04:33.965Z,16.36
2023-04-09T14:09:56.567Z,17.30
2023-04-09T14:15:19.333Z,17.08
2023-04-09T14:20:41.650Z,17.48
2023-04-09T14:26:04.881Z,17.55
2023-04-09T14:31:27.185Z,18.20
2023-04-09T14:36:49.473Z,18.07
2023-04-09T14:42:13.363Z,17.76
2023-04-09T14:47:35.747Z,17.84
2023-04-09T14:52:58.579Z,17.41
2023-04-09T14:58:22.758Z,17.33
2023-04-09T15:03:45.398Z,16.73
2023-04-09T15:09:08.088Z,16.95
2023-04-09T15:14:31.541Z,16.59
2023-04-09T15:19:53.847Z,16.71
2023-04-09T15:25:16.748Z,16.89
2023-04-09T15:30:39.147Z,16.92
2023-04-09T15:36:01.407Z,16.68
2023-04-09T15:41:24.321Z,16.91
2023-04-09T15:46:47.022Z,16.95
2023-04-09T15:52:09.329Z,16.64
2023-04-09T15:57:31.749Z,16.14
2023-04-09T16:02:54.362Z,15.45
2023-04-09T16:08:16.628Z,15.00
2023-04-09T16:13:39.832Z,14.32
2023-04-09T16:19:02.514Z,14.03
2023-04-09T16:24:25.741Z,13.98
2023-04-09T16:29:47.985Z,13.64
2023-04-09T16:35:10.295Z,13.19
2023-04-09T16:40:33.041Z,13.11
2023-04-09T16:45:55.784Z,13.00
2023-04-09T16:51:18.516Z,12.64
2023-04-09T16:56:41.096Z,12.21
2023-04-09T17:02:04.091Z,11.70
2023-04-09T17:07:27.343Z,11.63
2023-04-09T17:12:50.924Z,11.56
2023-04-09T17:18:13.149Z,11.25
2023-04-09T17:23:35.463Z,10.71
2023-04-09T17:28:57.722Z,10.18
2023-04-09T17:34:20.433Z,9.75
2023-04-09T17:39:43.220Z,9.48
2023-04-09T17:45:06.111Z,9.18
2023-04-09T17:50:28.474Z,8.86
2023-04-09T17:55:54.314Z,8.61
2023-04-09T18:01:18.368Z,8.35
2023-04-09T18:06:40.845Z,8.18
2023-04-09T18:12:03.542Z,8.04
2023-04-09T18:17:26.888Z,7.78
2023-04-09T18:22:49.494Z,7.69
2023-04-09T18:28:11.945Z,7.44
2023-04-09T18:33:34.588Z,7.39
2023-04-09T18:38:58.364Z,7.36
2023-04-09T18:44:22.086Z,7.25
2023-04-09T18:49:45.331Z,7.19
2023-04-09T18:55:07.702Z,7.09
2023-04-09T19:00:30.262Z,7.00
2023-04-09T19:05:52.990Z,7.15
2023-04-09T19:11:15.864Z,7.19
2023-04-09T19:16:38.768Z,7.21
2023-04-09T19:22:02.109Z,7.35
2023-04-09T19:27:25.032Z,7.45
2023-04-09T19:32:47.455Z,7.49
2023-04-09T19:38:09.763Z,7.46
2023-04-09T19:43:32.523Z,7.43
2023-04-09T19:48:56.947Z,7.55
2023-04-09T19:54:19.511Z,7.62
2023-04-09T19:59:42.287Z,7.60
2023-04-09T20:05:04.576Z,7.56
2023-04-09T20:10:28.286Z,7.43
2023-04-09T20:15:50.495Z,7.18
2023-04-09T20:21:14.612Z,6.99
2023-04-09T20:26:37.440Z,6.83
2023-04-09T20:31:59.793Z,6.67
2023-04-09T20:37:22.160Z,6.47
2023-04-09T20:42:45.560Z,6.31
2023-04-09T20:48:08.799Z,6.12
2023-04-09T20:53:31.553Z,5.96
2023-04-09T20:58:54.460Z,5.78
2023-04-09T21:04:17.376Z,5.60
2023-04-09T21:09:39.835Z,5.55
2023-04-09T21:15:02.120Z,5.46
2023-04-09T21:20:25.023Z,5.35
2023-04-09T21:25:47.829Z,5.24
2023-04-09T21:31:10.234Z,5.10
2023-04-09T21:36:34.783Z,5.06
2023-04-09T21:41:57.489Z,5.00
2023-04-09T21:47:19.723Z,4.92
2023-04-09T21:52:43.133Z,4.78
2023-04-09T21:58:06.327Z,4.70
2023-04-09T22:03:29.317Z,4.61
2023-04-09T22:08:55.982Z,4.50
2023-04-09T22:14:17.120Z,4.35
2023-04-09T22:19:40.928Z,4.17
2023-04-09T22:25:03.292Z,4.16
2023-04-09T22:30:26.677Z,4.09
2023-04-09T22:35:49.376Z,4.26
2023-04-09T22:41:13.327Z,4.29
2023-04-09T22:46:35.704Z,4.21
2023-04-09T22:51:58.272Z,4.12
2023-04-09T22:57:20.558Z,3.93
2023-04-09T23:02:44.122Z,3.58
2023-04-09T23:08:06.562Z,3.58
2023-04-09T23:13:29.847Z,3.49
2023-04-09T23:18:53.477Z,3.32
2023-04-09T23:24:16.267Z,3.12
2023-04-09T23:29:38.505Z,3.17
2023-04-09T23:35:01.727Z,3.27
2023-04-09T23:40:24.940Z,3.14
2023-04-09T23:45:48.924Z,3.09
2023-04-09T23:51:11.440Z,3.21
2023-04-09T23:56:34.658Z,3.19
